Nearby METAR Reports

 

EDNY - Friedrichshafen, Germany
Distance from station: O 31km
aktuell: 25.10.2014 07:50
geschlossene Wolkendecke
geschlossene Wolkendecke
 Wind von NNO
Wind: NNO 4 km/h
Temperatur: 5°C
Taupunkt: 3°C
Luftfeuchte: 87%
Luftdruck: 1020 hPa
Clouds: geschlossene Wolkendecke
Visibility: 10 km
Cloud details: stark bewölkt 2347 m
geschlossene Wolkendecke 2652 m
2014/10/25 05:50 EDNY 250550Z AUTO 03002KT 9999 BKN077 OVC087 05/03 Q1020
LSZR - Rheineck/Altenrh, Switzerland
Distance from station: SO 42km
aktuell: 25.10.2014 07:50
stark bewölkt
stark bewölkt
 Wind von SW
Wind: SW 2 km/h
Temperatur: 6°C
Taupunkt: 5°C
Luftfeuchte: 93%
Luftdruck: 1020 hPa
Clouds: stark bewölkt
Visibility: 10 km
Cloud details: Few Clouds 305 m
stark bewölkt 2438 m
2014/10/25 05:50 LSZR 250550Z 22001KT 9999 FEW010 BKN080 06/05 Q1020 NOSIG RMK A
LSZH - Zurich-Kloten (a, Switzerland
Distance from station: WSW 49km
aktuell: 25.10.2014 07:50
sehr leichter Niederschlag, stark bewölkt
sehr leichter Niederschlag, stark bewölkt
 Wind von varies
Wind: varies 4 km/h
Temperatur: 7°C
Taupunkt: 6°C
Luftfeuchte: 93%
Luftdruck: 1021 hPa
Zusammenfassung: sehr leichter Niederschlag
Clouds: stark bewölkt
Visibility: 8 km
Cloud details: teilweise bewölkt 1646 m
stark bewölkt 1829 m
2014/10/25 05:50 LSZH 250550Z VRB02KT 8000 -RA SCT054 BKN060 07/06 Q1021 NOSIG
 
EDTD - Donaueschingen, Germany
Distance from station: NW 53km
aktuell: 30.04.2014 18:20
NOT Current
sehr leichter Niederschlag, geschlossene Wolkendecke
sehr leichter Niederschlag, geschlossene Wolkendecke
 Wind von SSW
Wind: SSW 9 km/h
Temperatur: 10°C
gefühlte Temperatur: 9°C
Taupunkt: 10°C
Luftfeuchte: 100%
Luftdruck: 1011 hPa
Zusammenfassung: sehr leichter Niederschlag
Clouds: geschlossene Wolkendecke
Visibility: 9 km
Cloud details: stark bewölkt 213 m
geschlossene Wolkendecke 335 m
2014/04/30 16:20 EDTD 301620Z 20005KT 9000 -RA BKN007 OVC011 10/10 Q1011 LAST ?
ETGZ - Messstetten, Germany
Distance from station: N 54km
aktuell: 30.09.2013 14:20
NOT Current
geschlossene Wolkendecke
geschlossene Wolkendecke
 Wind von varies
Wind: varies 4 km/h
Temperatur: 8°C
Taupunkt: 7°C
Luftfeuchte: 93%
Luftdruck: 1007 hPa
Clouds: geschlossene Wolkendecke
Visibility: 10 km
Cloud details: geschlossene Wolkendecke 213 m
2013/09/30 12:20 ETGZ 301220Z VRB02KT 9999 OVC007 08/07 Q1007 GRN
LOIH - Hohenems-Dornbir, Austria
Distance from station: SO 57km
aktuell: 24.10.2014 18:00
NOT Current
Few Clouds
Few Clouds
 Wind von calm
Wind: Windstill
Temperatur: 12°C
Taupunkt: 6°C
Luftfeuchte: 67%
Luftdruck: 1020 hPa
Clouds: Few Clouds
Cloud details: Few Clouds 457 m
2014/10/24 16:00 LOIH 241600Z 00000KT 35KM FEW015CU 12/06 Q1020 RMK FEW
 
ETHL - Laupheim (ger-Ar, Germany
Distance from station: NO 84km
aktuell: 25.10.2014 07:20

 Wind von SSW
Wind: SSW 4 km/h
Temperatur: 4°C
Taupunkt: 4°C
Luftfeuchte: 100%
Luftdruck: 1020 hPa
Visibility: 6 km
2014/10/25 05:20 ETHL 250520Z AUTO 20002KT 6000 // ////// 04/04 Q1020 ///
EDJA - Memmingen Allgau, Germany
Distance from station: ONO 90km
aktuell: 25.10.2014 07:20
klar
klar
 Wind von varies
Wind: varies 4 km/h
Temperatur: 2°C
Taupunkt: 2°C
Luftfeuchte: 100%
Luftdruck: 1020 hPa
Zusammenfassung: klar
Visibility: greater than 10 km
2014/10/25 05:20 EDJA 250520Z VRB02KT CAVOK 02/02 Q1020
LSME - Emmen, Switzerland
Distance from station: SW 90km
aktuell: 25.10.2014 07:49
sehr leichter Niederschlag, Showers, geschlossene Wolkendecke
sehr leichter Niederschlag, Showers, geschlossene Wolkendecke
 Wind von varies
Wind: varies 2 km/h
Temperatur: 8°C
Taupunkt: 7°C
Luftfeuchte: 93%
Luftdruck: 1021 hPa
Zusammenfassung: sehr leichter Niederschlag, Showers
Clouds: geschlossene Wolkendecke
Visibility: 10 miles
Cloud details: geschlossene Wolkendecke 1859 m
2014/10/25 05:49 LSME 250549Z AUTO VRB01KT 6000NDV -SHRA OVC061 08/07 Q1021 RMK GRN
 
LSZC - Buochs, Switzerland
Distance from station: SSW 98km
aktuell: 25.10.2014 07:50
sehr leichter Niederschlag, Showers, geschlossene Wolkendecke
sehr leichter Niederschlag, Showers, geschlossene Wolkendecke
 Wind von varies
Wind: varies 6 km/h
Temperatur: 8°C
Taupunkt: 5°C
Luftfeuchte: 82%
Luftdruck: 1021 hPa
Zusammenfassung: sehr leichter Niederschlag, Showers
Clouds: geschlossene Wolkendecke
Visibility: 10 km
Cloud details: geschlossene Wolkendecke 1829 m
2014/10/25 05:50 LSZC 250550Z AUTO VRB03KT 9999 -SHRA OVC060 08/05 Q1021